Time;durP1;ratioP1;P1;durP2;ratioP2;P2;SDS_P1;SDS_P2;PMS_P1;PMS_P2;Temp;Humidity;BMP_temperature;BMP_pressure;BME280_temperature;BME280_humidity;BME280_pressure;Samples;Min_cycle;Max_cycle;Signal;HPM_P1;HPM_P2
2021/12/17 00:01:55;;;;;;;47.70;17.90;;;8.80;99.90;;;;;;5046370;28;20275;-62
2021/12/17 00:04:26;;;;;;;58.42;19.23;;;8.70;99.90;;;;;;5064199;28;20124;-63
2021/12/17 00:06:52;;;;;;;49.17;18.20;;;8.70;99.90;;;;;;5049495;28;20049;-63
2021/12/17 00:09:18;;;;;;;48.55;17.50;;;8.70;99.90;;;;;;5029054;28;20158;-62
2021/12/17 00:11:43;;;;;;;50.27;17.93;;;8.70;99.90;;;;;;5058423;28;20061;-62
2021/12/17 00:14:11;;;;;;;46.85;16.70;;;8.70;99.90;;;;;;5067781;28;20388;-62
2021/12/17 00:16:40;;;;;;;44.15;16.00;;;8.80;99.90;;;;;;5035768;28;20053;-63
2021/12/17 00:19:21;;;;;;;40.17;14.98;;;8.80;99.90;;;;;;5031780;28;20068;-62
2021/12/17 00:49:02;;;;;;;44.55;14.85;;;8.50;99.90;;;;;;5054710;28;20455;-63
2021/12/17 00:54:24;;;;;;;33.30;12.15;;;8.50;99.90;;;;;;5062832;28;20057;-62
2021/12/17 00:56:52;;;;;;;26.83;11.25;;;8.50;99.90;;;;;;5045592;28;20041;-62
2021/12/17 00:59:18;;;;;;;25.77;10.25;;;8.60;99.90;;;;;;5036414;28;20138;-63
2021/12/17 01:01:45;;;;;;;27.02;10.98;;;8.50;99.90;;;;;;5032696;28;20045;-62
2021/12/17 01:04:12;;;;;;;26.77;10.13;;;8.50;99.90;;;;;;5043936;28;20041;-63
2021/12/17 01:06:38;;;;;;;19.25;8.05;;;8.50;99.90;;;;;;5045169;28;20081;-62
2021/12/17 01:09:06;;;;;;;14.55;7.13;;;8.50;99.90;;;;;;5061524;28;20072;-63
2021/12/17 01:11:32;;;;;;;19.25;7.15;;;8.50;99.90;;;;;;5042170;28;20571;-63
2021/12/17 01:13:57;;;;;;;17.90;6.43;;;8.50;99.90;;;;;;5063045;28;20089;-63
2021/12/17 01:16:23;;;;;;;14.43;6.93;;;8.40;99.90;;;;;;5062364;28;20048;-63
2021/12/17 01:19:01;;;;;;;20.17;7.32;;;8.40;99.90;;;;;;5044900;28;20296;-62
2021/12/17 01:21:36;;;;;;;18.27;6.93;;;8.40;99.90;;;;;;5061458;28;20067;-62
2021/12/17 01:24:28;;;;;;;20.08;7.38;;;8.30;99.90;;;;;;5062973;28;20076;-62
2021/12/17 01:35:27;;;;;;;14.55;6.63;;;8.30;99.90;;;;;;5062699;28;20052;-62
2021/12/17 01:41:17;;;;;;;12.85;6.15;;;8.30;99.90;;;;;;5077093;28;20091;-62
2021/12/17 01:43:13;;;;;;;16.58;6.43;;;8.30;99.90;;;;;;5050763;28;20057;-63
2021/12/17 01:45:41;;;;;;;12.55;6.47;;;8.30;99.90;;;;;;5032431;28;20056;-62
2021/12/17 01:48:14;;;;;;;15.82;6.55;;;8.30;99.90;;;;;;5060115;28;20079;-63
2021/12/17 02:02:06;;;;;;;11.50;6.00;;;8.40;99.90;;;;;;4945480;29;20134;-63
2021/12/17 02:04:34;;;;;;;14.38;6.00;;;8.40;99.90;;;;;;4959551;29;20063;-62
2021/12/17 02:07:01;;;;;;;13.02;6.47;;;8.40;99.90;;;;;;4958882;29;20051;-62
2021/12/17 02:31:36;;;;;;;12.80;5.57;;;8.40;99.90;;;;;;4945073;29;20051;-62
2021/12/17 02:34:11;;;;;;;11.70;5.97;;;8.40;99.90;;;;;;4943364;29;20054;-62
2021/12/17 02:36:39;;;;;;;12.13;5.93;;;8.40;99.90;;;;;;4956439;28;20043;-62
2021/12/17 02:39:45;;;;;;;12.38;5.93;;;8.40;99.90;;;;;;5065169;28;20045;-63
2021/12/17 02:47:28;;;;;;;12.07;5.30;;;8.30;99.90;;;;;;5041286;28;20073;-62
2021/12/17 02:49:54;;;;;;;11.83;6.17;;;8.20;99.90;;;;;;5047639;28;20159;-62
2021/12/17 02:52:27;;;;;;;9.60;6.03;;;8.20;99.90;;;;;;5061647;28;20034;-62
2021/12/17 02:54:53;;;;;;;9.57;5.82;;;8.20;99.90;;;;;;5027918;28;20109;-62
2021/12/17 02:57:19;;;;;;;9.95;5.88;;;8.20;99.90;;;;;;5036096;28;20080;-63
2021/12/17 02:59:45;;;;;;;10.07;6.18;;;8.20;99.90;;;;;;5047902;28;20049;-62
2021/12/17 03:02:11;;;;;;;9.32;5.97;;;8.20;99.90;;;;;;5047335;28;20142;-62
2021/12/17 03:04:40;;;;;;;11.38;6.05;;;8.20;99.90;;;;;;5044692;28;20049;-62
2021/12/17 03:07:09;;;;;;;11.93;6.50;;;8.20;99.90;;;;;;5046635;28;20123;-62
2021/12/17 03:12:26;;;;;;;10.95;6.60;;;8.20;99.90;;;;;;5065729;28;20073;-63
2021/12/17 03:15:01;;;;;;;9.73;6.47;;;8.20;99.90;;;;;;5059832;28;20070;-62
2021/12/17 03:18:21;;;;;;;10.57;6.70;;;8.30;99.90;;;;;;5063072;28;20096;-62
2021/12/17 03:25:41;;;;;;;10.63;6.25;;;8.30;99.90;;;;;;5014838;28;20042;-62
2021/12/17 03:28:07;;;;;;;10.10;6.13;;;8.30;99.90;;;;;;5024129;28;20060;-62
2021/12/17 03:30:32;;;;;;;11.30;6.87;;;8.30;99.90;;;;;;5025635;28;20056;-62
2021/12/17 03:32:58;;;;;;;9.93;6.20;;;8.40;99.90;;;;;;5007945;28;20316;-62
2021/12/17 03:35:24;;;;;;;10.07;5.90;;;8.40;99.90;;;;;;5016942;28;20149;-62
2021/12/17 03:37:49;;;;;;;10.43;6.30;;;8.30;99.90;;;;;;5008754;28;20111;-63
2021/12/17 03:40:17;;;;;;;9.33;6.17;;;8.40;99.90;;;;;;5021984;28;20140;-62
2021/12/17 03:42:47;;;;;;;8.60;5.72;;;8.40;99.90;;;;;;5023887;28;20736;-63
2021/12/17 03:45:15;;;;;;;11.23;6.72;;;8.40;99.90;;;;;;5015421;28;20050;-62
2021/12/17 03:47:41;;;;;;;10.13;6.57;;;8.40;99.90;;;;;;5016946;28;20048;-63
2021/12/17 03:50:07;;;;;;;8.23;5.70;;;8.40;99.90;;;;;;5025418;28;20128;-63
2021/12/17 03:52:33;;;;;;;11.77;6.00;;;8.40;99.90;;;;;;5025190;28;20045;-63
2021/12/17 03:54:58;;;;;;;11.40;6.45;;;8.40;99.90;;;;;;5023688;28;20477;-63
2021/12/17 03:57:24;;;;;;;10.80;6.43;;;8.40;99.90;;;;;;5010732;28;20054;-62
2021/12/17 03:59:50;;;;;;;10.50;6.53;;;8.40;99.90;;;;;;5005333;28;20312;-63
2021/12/17 04:02:16;;;;;;;7.93;5.63;;;8.50;99.90;;;;;;5025041;28;20037;-61
2021/12/17 04:04:42;;;;;;;11.55;6.50;;;8.40;99.90;;;;;;5023681;28;20432;-62
2021/12/17 04:07:08;;;;;;;11.05;6.13;;;8.40;99.90;;;;;;5019285;28;20050;-62
2021/12/17 04:09:34;;;;;;;9.30;6.18;;;8.40;99.90;;;;;;5022282;28;20060;-61
2021/12/17 04:12:07;;;;;;;8.82;5.88;;;8.40;99.90;;;;;;5024973;28;20041;-61
2021/12/17 04:14:41;;;;;;;10.45;6.50;;;8.40;99.90;;;;;;5023470;28;20132;-62
2021/12/17 04:17:06;;;;;;;10.82;5.90;;;8.40;99.90;;;;;;5024476;28;20057;-61
2021/12/17 04:19:33;;;;;;;8.38;5.47;;;8.40;99.90;;;;;;5036253;28;20397;-62
2021/12/17 04:21:59;;;;;;;9.45;5.32;;;8.40;99.90;;;;;;5046497;28;20049;-62
2021/12/17 04:24:25;;;;;;;9.00;5.85;;;8.40;99.90;;;;;;5046150;28;20072;-62
2021/12/17 04:26:50;;;;;;;8.93;5.78;;;8.40;99.90;;;;;;5058057;28;20136;-62
2021/12/17 04:29:17;;;;;;;9.20;5.93;;;8.40;99.90;;;;;;5044935;28;20060;-62
2021/12/17 04:31:50;;;;;;;9.30;5.95;;;8.40;99.90;;;;;;5064111;28;20041;-62
2021/12/17 04:34:17;;;;;;;9.48;6.10;;;8.40;99.90;;;;;;5064237;28;20079;-62
2021/12/17 04:36:44;;;;;;;10.85;6.20;;;8.40;99.90;;;;;;5046591;28;20053;-62
2021/12/17 04:39:09;;;;;;;10.95;6.25;;;8.40;99.90;;;;;;5046226;28;20073;-62
2021/12/17 04:41:42;;;;;;;11.97;6.57;;;8.40;99.90;;;;;;5046234;28;20041;-62
2021/12/17 04:46:49;;;;;;;12.93;7.10;;;8.40;99.90;;;;;;5064198;28;20132;-62
2021/12/17 04:57:33;;;;;;;13.05;7.40;;;8.40;99.90;;;;;;5063987;28;20060;-62
2021/12/17 05:00:11;;;;;;;14.93;8.23;;;8.40;99.90;;;;;;5042013;28;20124;-62
2021/12/17 05:02:44;;;;;;;19.70;8.48;;;8.30;99.90;;;;;;5040337;28;20113;-62
2021/12/17 05:05:11;;;;;;;21.05;9.55;;;8.30;99.90;;;;;;5045648;28;20386;-62
2021/12/17 05:07:43;;;;;;;19.15;10.02;;;8.30;99.90;;;;;;5045735;28;20052;-62
2021/12/17 05:20:55;;;;;;;20.67;9.93;;;8.40;99.90;;;;;;5043726;28;20131;-62
2021/12/17 05:23:26;;;;;;;16.40;8.90;;;8.40;99.90;;;;;;5043970;28;20074;-62
2021/12/17 05:25:52;;;;;;;15.73;9.07;;;8.40;99.90;;;;;;5045300;28;20055;-62
2021/12/17 05:28:18;;;;;;;17.38;9.57;;;8.40;99.90;;;;;;5044485;28;20529;-62
2021/12/17 05:30:48;;;;;;;16.38;9.60;;;8.40;99.90;;;;;;5063424;28;20041;-62
2021/12/17 05:33:25;;;;;;;22.80;10.98;;;8.40;99.90;;;;;;5045382;28;20522;-62
2021/12/17 05:35:51;;;;;;;17.58;10.02;;;8.40;99.90;;;;;;5063176;28;20049;-62
2021/12/17 05:38:18;;;;;;;19.98;10.43;;;8.40;99.90;;;;;;5045106;28;20048;-63
2021/12/17 05:40:45;;;;;;;19.35;10.82;;;8.40;99.90;;;;;;5061690;28;20147;-62
2021/12/17 05:43:12;;;;;;;;;;;8.40;99.90;;;;;;5063731;28;20053;-62
2021/12/17 05:48:09;;;;;;;21.98;11.02;;;8.40;99.90;;;;;;5044821;28;20080;-62
2021/12/17 05:50:38;;;;;;;19.77;10.65;;;8.40;99.90;;;;;;5032490;28;20376;-63
2021/12/17 05:53:05;;;;;;;17.52;10.63;;;8.40;99.90;;;;;;5047604;28;20076;-62
2021/12/17 05:55:32;;;;;;;22.10;12.05;;;8.40;99.90;;;;;;5063078;28;20119;-62
2021/12/17 05:57:57;;;;;;;;;;;8.40;99.90;;;;;;5028055;28;20084;-62
2021/12/17 06:00:24;;;;;;;23.17;11.32;;;8.30;99.90;;;;;;5043120;28;19966;-62
2021/12/17 06:02:51;;;;;;;28.40;12.07;;;8.40;99.90;;;;;;5044458;28;20886;-62
2021/12/17 06:05:17;;;;;;;25.45;12.20;;;8.40;99.90;;;;;;5063196;28;20051;-62
2021/12/17 06:07:43;;;;;;;24.45;11.57;;;8.40;99.90;;;;;;5062986;28;20045;-62
2021/12/17 06:10:10;;;;;;;24.85;12.55;;;8.40;99.90;;;;;;5063357;28;20087;-62
2021/12/17 06:12:39;;;;;;;30.08;13.00;;;8.40;99.90;;;;;;5041250;28;20072;-62
2021/12/17 06:15:07;;;;;;;26.02;12.75;;;8.40;99.90;;;;;;5048665;28;20060;-62
2021/12/17 06:17:33;;;;;;;22.85;11.55;;;8.40;99.90;;;;;;5048777;28;20048;-62
2021/12/17 06:19:59;;;;;;;27.15;12.43;;;8.40;99.90;;;;;;5066842;28;20067;-62
2021/12/17 06:22:24;;;;;;;25.38;12.35;;;8.40;99.90;;;;;;5063154;28;20140;-62
2021/12/17 06:24:50;;;;;;;25.02;12.35;;;8.30;99.90;;;;;;5048844;28;20073;-63
2021/12/17 06:27:19;;;;;;;32.20;12.68;;;8.30;99.90;;;;;;5048482;28;20120;-62
2021/12/17 06:29:46;;;;;;;30.27;13.40;;;8.30;99.90;;;;;;5048613;28;20053;-62
2021/12/17 06:32:11;;;;;;;;;;;8.30;99.90;;;;;;5063272;28;20211;-62
2021/12/17 06:34:38;;;;;;;25.65;11.95;;;8.30;99.90;;;;;;5045249;28;19932;-62
2021/12/17 06:37:04;;;;;;;;;;;8.20;99.90;;;;;;5051645;28;20059;-63
2021/12/17 06:39:31;;;;;;;28.10;11.20;;;8.20;99.90;;;;;;5065332;28;20287;-62
2021/12/17 06:41:57;;;;;;;27.50;12.13;;;8.20;99.90;;;;;;5048085;28;20041;-62
2021/12/17 06:44:25;;;;;;;30.98;12.60;;;8.10;99.90;;;;;;5064209;28;20060;-62
2021/12/17 06:49:29;;;;;;;26.58;12.20;;;8.10;99.90;;;;;;5066129;28;20056;-62
2021/12/17 07:10:37;;;;;;;27.38;11.93;;;8.20;99.90;;;;;;5046188;28;20042;-63
2021/12/17 07:34:03;;;;;;;31.42;14.25;;;8.30;99.90;;;;;;5065216;28;20052;-61
2021/12/17 07:36:39;;;;;;;31.63;13.85;;;8.30;99.90;;;;;;5045255;28;20080;-60
2021/12/17 07:39:04;;;;;;;29.08;14.32;;;8.30;99.90;;;;;;5047544;28;20488;-60
2021/12/17 07:41:30;;;;;;;31.50;14.20;;;8.30;99.90;;;;;;5046631;28;20067;-60
2021/12/17 07:43:59;;;;;;;24.13;12.77;;;8.30;99.90;;;;;;5078340;28;20045;-60
2021/12/17 07:46:25;;;;;;;27.48;13.43;;;8.30;99.90;;;;;;5047958;28;20878;-60
2021/12/17 07:48:52;;;;;;;26.92;13.10;;;8.40;99.90;;;;;;5044680;28;20064;-62
2021/12/17 07:51:19;;;;;;;24.40;12.48;;;8.40;99.90;;;;;;5035725;28;20045;-62
2021/12/17 07:53:47;;;;;;;33.55;13.65;;;8.40;99.90;;;;;;5064854;28;20067;-63
2021/12/17 07:56:17;;;;;;;26.83;13.00;;;8.40;99.90;;;;;;5047043;28;20036;-62
2021/12/17 07:58:43;;;;;;;30.35;13.15;;;8.40;99.90;;;;;;5050773;28;20084;-62
2021/12/17 08:01:10;;;;;;;26.60;12.95;;;8.40;99.90;;;;;;5034038;28;20056;-62
2021/12/17 08:03:40;;;;;;;28.20;11.93;;;8.40;99.90;;;;;;5031262;28;20076;-63
2021/12/17 08:06:06;;;;;;;28.98;12.27;;;8.40;99.90;;;;;;5028188;28;20118;-62
2021/12/17 08:08:33;;;;;;;32.08;13.68;;;8.50;99.90;;;;;;5045232;28;20056;-63
2021/12/17 08:10:58;;;;;;;28.25;13.20;;;8.40;99.90;;;;;;5060314;28;20038;-63
2021/12/17 08:13:28;;;;;;;25.77;12.57;;;8.40;99.90;;;;;;5057887;28;20071;-62
2021/12/17 08:18:56;;;;;;;30.23;13.15;;;8.40;99.90;;;;;;5042845;28;20048;-58
2021/12/17 08:29:44;;;;;;;30.20;12.57;;;8.50;99.90;;;;;;5044826;28;20060;-61
2021/12/17 08:32:10;;;;;;;35.95;14.90;;;8.50;99.90;;;;;;5046466;28;20049;-65
2021/12/17 08:34:36;;;;;;;32.20;13.98;;;8.50;99.90;;;;;;5044662;28;20079;-62
2021/12/17 08:37:02;;;;;;;32.88;13.85;;;8.50;99.90;;;;;;5046056;28;20595;-64
2021/12/17 08:39:30;;;;;;;31.15;13.55;;;8.50;99.90;;;;;;5044763;28;20080;-62
2021/12/17 08:41:58;;;;;;;33.83;15.20;;;8.50;99.90;;;;;;5062059;28;20032;-61
2021/12/17 08:44:24;;;;;;;41.55;14.73;;;8.50;99.90;;;;;;5045461;28;20051;-62
2021/12/17 08:46:50;;;;;;;32.17;14.75;;;8.50;99.90;;;;;;5046283;28;20131;-62
2021/12/17 08:49:15;;;;;;;31.75;13.93;;;8.50;99.90;;;;;;5045889;28;20056;-61
2021/12/17 08:51:43;;;;;;;28.90;13.93;;;8.50;99.90;;;;;;5063842;28;20037;-61
2021/12/17 08:54:09;;;;;;;32.03;14.68;;;8.50;99.90;;;;;;5063197;28;20499;-61
2021/12/17 08:56:42;;;;;;;29.50;13.63;;;8.50;99.90;;;;;;5064138;28;20080;-62
2021/12/17 08:59:08;;;;;;;29.55;14.07;;;8.60;99.90;;;;;;5045792;28;20473;-61
2021/12/17 09:01:34;;;;;;;30.35;15.00;;;8.60;99.90;;;;;;5062908;28;20033;-62
2021/12/17 09:04:00;;;;;;;34.45;13.48;;;8.60;99.90;;;;;;5029156;28;20041;-61
2021/12/17 09:06:28;;;;;;;26.85;13.95;;;8.60;99.90;;;;;;5063733;28;20056;-61
2021/12/17 09:08:55;;;;;;;28.55;14.25;;;8.60;99.90;;;;;;5063905;28;20137;-61
2021/12/17 09:11:26;;;;;;;28.17;14.48;;;8.60;99.90;;;;;;5063894;28;20055;-62
2021/12/17 09:13:57;;;;;;;26.92;13.45;;;8.70;99.90;;;;;;5045176;28;20111;-62
2021/12/17 09:16:23;;;;;;;28.70;12.27;;;8.70;99.90;;;;;;5060819;28;20044;-62
2021/12/17 09:18:53;;;;;;;27.55;12.98;;;8.70;99.90;;;;;;5063456;28;20101;-62
2021/12/17 09:21:19;;;;;;;29.05;13.77;;;8.70;99.90;;;;;;5056095;28;20049;-61
2021/12/17 09:23:45;;;;;;;26.42;12.82;;;8.70;99.90;;;;;;5050097;28;20106;-61
2021/12/17 09:26:13;;;;;;;29.67;13.32;;;8.80;99.90;;;;;;5030110;28;20081;-62
2021/12/17 09:28:38;;;;;;;25.85;12.40;;;8.80;99.90;;;;;;5039901;28;20065;-62
2021/12/17 09:31:06;;;;;;;27.52;13.13;;;8.80;99.90;;;;;;5061787;28;20084;-61
2021/12/17 09:33:33;;;;;;;24.13;11.65;;;8.80;99.90;;;;;;5063236;28;20450;-63
2021/12/17 09:35:58;;;;;;;26.25;12.40;;;8.80;99.90;;;;;;5054147;28;20084;-62
2021/12/17 09:38:24;;;;;;;29.50;12.50;;;8.80;99.90;;;;;;5057456;28;20381;-60
2021/12/17 09:40:50;;;;;;;26.05;12.38;;;8.80;99.90;;;;;;5044687;28;20056;-61
2021/12/17 09:43:16;;;;;;;23.60;11.73;;;8.80;99.90;;;;;;5043275;28;20052;-59
2021/12/17 09:45:42;;;;;;;29.10;12.88;;;8.90;99.90;;;;;;5056987;28;20054;-59
2021/12/17 09:48:08;;;;;;;43.55;13.27;;;8.90;99.90;;;;;;5062553;28;20076;-60
2021/12/17 09:50:34;;;;;;;56.63;14.95;;;8.90;99.90;;;;;;5044464;28;20045;-59
2021/12/17 09:53:00;;;;;;;33.85;12.68;;;8.90;99.90;;;;;;5063439;28;20090;-60
2021/12/17 09:55:27;;;;;;;26.95;11.65;;;8.90;99.90;;;;;;5044868;28;20045;-60
2021/12/17 09:57:53;;;;;;;;;;;8.90;99.90;;;;;;5037402;28;20041;-59
2021/12/17 10:00:21;;;;;;;23.13;11.38;;;8.90;99.90;;;;;;5051918;28;19921;-60
2021/12/17 10:02:48;;;;;;;27.13;12.48;;;8.90;99.90;;;;;;5063307;28;20072;-59
2021/12/17 10:05:28;;;;;;;30.05;11.88;;;8.90;99.90;;;;;;5023473;28;20113;-60
2021/12/17 10:07:56;;;;;;;25.77;12.00;;;8.90;99.90;;;;;;5067813;28;20535;-58
2021/12/17 10:10:38;;;;;;;26.20;11.57;;;8.90;99.90;;;;;;5044539;28;20098;-59
2021/12/17 10:13:11;;;;;;;22.83;10.98;;;8.90;99.90;;;;;;5062998;28;20098;-60
2021/12/17 10:15:41;;;;;;;22.88;10.50;;;9.00;99.90;;;;;;5044013;28;20059;-60
2021/12/17 10:18:06;;;;;;;22.60;9.60;;;9.00;99.90;;;;;;5059512;28;20044;-60
2021/12/17 10:20:59;;;;;;;21.63;10.07;;;9.00;99.90;;;;;;5061901;28;20049;-60
2021/12/17 10:23:27;;;;;;;24.33;11.15;;;9.00;99.90;;;;;;5062677;28;20117;-60
2021/12/17 10:25:53;;;;;;;23.23;10.73;;;9.00;99.90;;;;;;5062157;28;20037;-60
2021/12/17 10:28:19;;;;;;;25.50;11.05;;;9.10;99.90;;;;;;5044085;28;20092;-60
2021/12/17 10:30:48;;;;;;;20.17;11.05;;;9.10;99.90;;;;;;5061278;28;20037;-60
2021/12/17 10:33:18;;;;;;;27.63;11.48;;;9.10;99.90;;;;;;5044484;28;20071;-60
2021/12/17 10:35:47;;;;;;;24.67;10.70;;;9.10;99.90;;;;;;5052829;28;20041;-60
2021/12/17 10:38:16;;;;;;;23.45;11.38;;;9.10;99.90;;;;;;5067601;28;20049;-61
2021/12/17 10:40:49;;;;;;;24.35;11.73;;;9.10;99.90;;;;;;5049264;28;20620;-61
2021/12/17 10:46:01;;;;;;;26.23;10.90;;;9.20;99.90;;;;;;5045055;28;20052;-61
2021/12/17 10:51:30;;;;;;;22.98;11.20;;;9.20;99.90;;;;;;5069257;28;20167;-61
2021/12/17 10:54:11;;;;;;;18.70;10.00;;;9.20;99.90;;;;;;5071066;28;20055;-60
2021/12/17 10:56:41;;;;;;;22.15;10.00;;;9.20;99.90;;;;;;5038663;28;20090;-60
2021/12/17 10:59:31;;;;;;;24.73;10.00;;;9.20;99.90;;;;;;5050782;28;20045;-60
2021/12/17 11:02:05;;;;;;;17.33;9.73;;;9.20;99.90;;;;;;5037922;28;20052;-62
2021/12/17 11:04:33;;;;;;;16.67;8.48;;;9.30;99.90;;;;;;5066061;28;20056;-63
2021/12/17 11:07:04;;;;;;;14.05;7.32;;;9.30;99.90;;;;;;5066026;28;20056;-61
2021/12/17 11:09:57;;;;;;;16.48;7.35;;;9.30;99.90;;;;;;5065941;28;20104;-61
2021/12/17 11:12:24;;;;;;;12.30;7.28;;;9.30;99.90;;;;;;5047426;28;20048;-59
2021/12/17 11:14:50;;;;;;;12.82;6.78;;;9.40;99.90;;;;;;5047845;28;20056;-61
2021/12/17 11:17:18;;;;;;;9.85;6.70;;;9.40;99.90;;;;;;5047664;28;20095;-58
2021/12/17 11:19:44;;;;;;;11.63;6.60;;;9.40;99.90;;;;;;5047538;28;20053;-60
2021/12/17 11:22:10;;;;;;;12.82;6.63;;;9.40;99.90;;;;;;5064271;28;20045;-59
2021/12/17 11:24:37;;;;;;;17.15;7.10;;;9.40;99.90;;;;;;5065826;28;20080;-58
2021/12/17 11:27:03;;;;;;;;;;;9.40;99.90;;;;;;5048227;28;20047;-59
2021/12/17 11:29:30;;;;;;;7.78;5.82;;;9.40;99.90;;;;;;5063937;28;19933;-60
2021/12/17 11:31:56;;;;;;;11.52;6.07;;;9.40;99.90;;;;;;5040117;28;20060;-59
2021/12/17 11:34:23;;;;;;;10.68;6.38;;;9.50;99.90;;;;;;5027789;28;20145;-59
2021/12/17 11:36:48;;;;;;;9.65;5.68;;;9.50;99.90;;;;;;5064479;28;20037;-59
2021/12/17 11:39:24;;;;;;;8.73;6.00;;;9.50;99.90;;;;;;5047887;28;20048;-59
2021/12/17 11:42:04;;;;;;;11.68;5.95;;;9.50;99.90;;;;;;5063754;28;20061;-59
2021/12/17 11:44:40;;;;;;;7.28;5.35;;;9.50;99.90;;;;;;5045445;28;20049;-59
2021/12/17 11:47:10;;;;;;;14.03;5.93;;;9.50;99.90;;;;;;5065262;28;20055;-60
2021/12/17 11:49:54;;;;;;;11.80;5.90;;;9.50;99.90;;;;;;5046315;28;20085;-60
2021/12/17 11:52:35;;;;;;;13.73;6.32;;;9.50;99.90;;;;;;5046350;28;20044;-59
2021/12/17 11:55:22;;;;;;;9.63;5.70;;;9.50;99.90;;;;;;5045344;28;20101;-59
2021/12/17 11:57:50;;;;;;;8.93;5.63;;;9.50;99.90;;;;;;5048129;28;20088;-59
2021/12/17 12:00:22;;;;;;;10.73;6.18;;;9.50;99.90;;;;;;5064730;28;20067;-59
2021/12/17 12:02:49;;;;;;;10.32;5.57;;;9.50;99.90;;;;;;5065078;28;20149;-59
2021/12/17 12:05:36;;;;;;;7.32;5.85;;;9.50;99.90;;;;;;5045017;28;20044;-59
2021/12/17 12:08:45;;;;;;;11.93;5.15;;;9.50;99.90;;;;;;5045990;28;20048;-60
2021/12/17 12:11:18;;;;;;;10.60;6.25;;;9.40;99.90;;;;;;5022462;28;20461;-60
2021/12/17 12:13:46;;;;;;;9.60;6.57;;;9.50;99.90;;;;;;5038518;28;20070;-60
2021/12/17 12:16:25;;;;;;;9.20;6.38;;;9.50;99.90;;;;;;5039589;28;20121;-59
2021/12/17 12:18:52;;;;;;;10.38;6.53;;;9.50;99.90;;;;;;5022480;28;20105;-60
2021/12/17 12:21:23;;;;;;;13.20;6.40;;;9.50;99.90;;;;;;5037693;28;20065;-59
2021/12/17 12:24:09;;;;;;;10.77;6.93;;;9.50;99.90;;;;;;5022682;28;20058;-58
2021/12/17 12:26:46;;;;;;;10.05;6.30;;;9.50;99.90;;;;;;5005718;28;20050;-59
2021/12/17 12:29:14;;;;;;;9.65;5.78;;;9.50;99.90;;;;;;5006162;28;20077;-60
2021/12/17 12:31:45;;;;;;;11.02;6.45;;;9.50;99.90;;;;;;5006290;28;20041;-61
2021/12/17 12:34:14;;;;;;;9.13;6.88;;;9.50;99.90;;;;;;5006167;28;20054;-59
2021/12/17 12:37:01;;;;;;;14.30;7.20;;;9.50;99.90;;;;;;5015597;28;20470;-60
2021/12/17 12:39:31;;;;;;;15.32;7.15;;;9.50;99.90;;;;;;5022263;28;20070;-59
2021/12/17 12:42:06;;;;;;;12.73;7.22;;;9.50;99.90;;;;;;5016596;28;20153;-61
2021/12/17 12:44:44;;;;;;;8.98;6.07;;;9.50;99.90;;;;;;4999955;28;20603;-60
2021/12/17 12:47:14;;;;;;;14.38;7.28;;;9.60;99.90;;;;;;5023085;28;20105;-62
2021/12/17 12:49:44;;;;;;;12.90;6.97;;;9.60;99.90;;;;;;5046121;28;20052;-63
2021/12/17 12:52:36;;;;;;;16.35;7.93;;;9.60;99.90;;;;;;5064002;28;20044;-61
2021/12/17 12:55:05;;;;;;;13.93;7.15;;;9.50;99.90;;;;;;5044217;28;20049;-62
2021/12/17 12:57:37;;;;;;;10.18;7.28;;;9.60;99.90;;;;;;5042666;28;20061;-62
2021/12/17 13:00:11;;;;;;;12.02;7.32;;;9.60;99.90;;;;;;5042359;28;20049;-62
2021/12/17 13:02:38;;;;;;;15.52;7.13;;;9.60;99.90;;;;;;5035950;28;20054;-61
2021/12/17 13:05:06;;;;;;;10.57;6.97;;;9.60;99.90;;;;;;5066365;28;20068;-61
2021/12/17 13:07:41;;;;;;;11.60;7.55;;;9.60;99.90;;;;;;5053358;28;20053;-62
2021/12/17 13:10:06;;;;;;;10.20;7.93;;;9.60;99.90;;;;;;5049921;28;20052;-62
2021/12/17 13:12:35;;;;;;;9.27;6.57;;;9.60;99.90;;;;;;5074152;28;20059;-64
2021/12/17 13:15:16;;;;;;;10.13;7.50;;;9.60;99.90;;;;;;5068614;28;20041;-64
2021/12/17 13:20:40;;;;;;;11.40;7.88;;;9.60;99.90;;;;;;5051334;28;20088;-62
2021/12/17 13:20:54;;;;;;;10.68;6.97;;;9.60;99.90;;;;;;5061914;28;20056;-62
2021/12/17 13:23:21;;;;;;;10.98;7.00;;;9.60;99.90;;;;;;5041679;28;20189;-62
2021/12/17 13:26:09;;;;;;;9.63;6.88;;;9.60;99.90;;;;;;5042195;28;20045;-61
2021/12/17 13:28:53;;;;;;;11.10;7.05;;;9.60;99.90;;;;;;5061695;28;20041;-60
2021/12/17 13:31:31;;;;;;;10.25;6.30;;;9.60;99.90;;;;;;5040261;28;20053;-60
2021/12/17 13:33:57;;;;;;;8.95;6.60;;;9.60;99.90;;;;;;5043508;28;20149;-60
2021/12/17 13:36:22;;;;;;;9.88;7.35;;;9.60;99.90;;;;;;5060386;28;20053;-60
2021/12/17 13:38:56;;;;;;;11.68;6.93;;;9.60;99.90;;;;;;5062363;28;20139;-61
2021/12/17 13:41:36;;;;;;;10.30;6.80;;;9.60;99.90;;;;;;5058027;28;20060;-57
2021/12/17 13:44:02;;;;;;;8.15;6.43;;;9.60;99.90;;;;;;5042401;28;20064;-60
2021/12/17 13:46:28;;;;;;;;;;;9.60;99.90;;;;;;5060034;28;20033;-60
2021/12/17 13:48:54;;;;;;;11.32;6.53;;;9.50;99.90;;;;;;5057050;28;19920;-60
2021/12/17 13:51:20;;;;;;;9.25;6.35;;;9.60;99.90;;;;;;5040378;28;20045;-60
2021/12/17 13:53:46;;;;;;;7.75;6.40;;;9.60;99.90;;;;;;5043283;28;20500;-61
2021/12/17 13:56:17;;;;;;;;;;;9.60;99.90;;;;;;5043737;28;20103;-58
2021/12/17 13:58:42;;;;;;;10.23;6.30;;;9.60;99.90;;;;;;5061346;28;19925;-60
2021/12/17 14:01:08;;;;;;;10.05;5.97;;;9.60;99.90;;;;;;5042887;28;20056;-58
2021/12/17 14:03:38;;;;;;;7.28;6.18;;;9.60;99.90;;;;;;5061353;28;20060;-60
2021/12/17 14:06:22;;;;;;;6.70;5.93;;;9.60;99.90;;;;;;5045101;28;20100;-60
2021/12/17 14:08:51;;;;;;;10.82;7.18;;;9.60;99.90;;;;;;5059769;28;20049;-59
2021/12/17 14:11:33;;;;;;;11.40;7.65;;;9.60;99.90;;;;;;5061514;28;20123;-59
2021/12/17 14:14:00;;;;;;;11.48;7.38;;;9.60;99.90;;;;;;5040774;28;20395;-59
2021/12/17 14:16:31;;;;;;;10.00;7.35;;;9.60;99.90;;;;;;5061035;28;20045;-60
2021/12/17 14:18:58;;;;;;;10.48;6.88;;;9.60;99.90;;;;;;5059574;28;20059;-60
2021/12/17 14:21:32;;;;;;;14.70;8.00;;;9.60;99.90;;;;;;5061475;28;20053;-60
2021/12/17 14:23:58;;;;;;;11.30;7.97;;;9.60;99.90;;;;;;5058816;28;20129;-59
2021/12/17 14:26:29;;;;;;;16.90;8.23;;;9.60;99.90;;;;;;5043012;28;20093;-59
2021/12/17 14:29:06;;;;;;;25.40;9.05;;;9.60;99.90;;;;;;5052438;28;20090;-59
2021/12/17 14:31:32;;;;;;;;;;;9.60;99.90;;;;;;5043334;28;20571;-60
2021/12/17 14:33:57;;;;;;;12.80;8.40;;;9.60;99.90;;;;;;5065195;28;19920;-60
2021/12/17 14:36:36;;;;;;;19.27;8.18;;;9.60;99.90;;;;;;5047083;28;20053;-61
2021/12/17 14:39:10;;;;;;;12.23;7.72;;;9.60;99.90;;;;;;5061786;28;20045;-60
2021/12/17 14:41:50;;;;;;;13.68;7.70;;;9.60;99.90;;;;;;5062854;28;20041;-61
2021/12/17 14:47:02;;;;;;;11.07;7.65;;;9.60;99.90;;;;;;5042964;28;20091;-61
2021/12/17 15:03:44;;;;;;;12.52;7.03;;;9.50;99.90;;;;;;4977693;28;20150;-59
2021/12/17 15:06:12;;;;;;;11.63;7.45;;;9.50;99.90;;;;;;4966032;28;20115;-59
2021/12/17 15:08:39;;;;;;;11.27;8.25;;;9.50;99.90;;;;;;4966354;28;20058;-59
2021/12/17 15:11:14;;;;;;;15.85;7.93;;;9.50;99.90;;;;;;4965658;28;20157;-60
2021/12/17 15:13:39;;;;;;;11.40;7.53;;;9.50;99.90;;;;;;4966012;28;20598;-58
2021/12/17 15:16:05;;;;;;;13.02;7.82;;;9.50;99.90;;;;;;4982492;28;20055;-57
2021/12/17 15:18:31;;;;;;;11.45;8.15;;;9.50;99.90;;;;;;4977648;28;20122;-58
2021/12/17 15:20:58;;;;;;;14.38;8.30;;;9.50;99.90;;;;;;4966391;28;20541;-58
2021/12/17 15:23:25;;;;;;;9.43;7.85;;;9.50;99.90;;;;;;4980463;28;20125;-58
2021/12/17 15:25:52;;;;;;;12.32;8.25;;;9.50;99.90;;;;;;4966594;28;20065;-58
2021/12/17 15:28:22;;;;;;;10.02;8.10;;;9.50;99.90;;;;;;4982441;28;20465;-59
2021/12/17 15:30:53;;;;;;;13.18;8.38;;;9.50;99.90;;;;;;4965919;28;20062;-59
2021/12/17 15:33:19;;;;;;;13.30;8.38;;;9.50;99.90;;;;;;4982100;28;20089;-59
2021/12/17 15:35:46;;;;;;;12.38;8.45;;;9.50;99.90;;;;;;4965961;28;20061;-58
2021/12/17 15:38:12;;;;;;;14.45;9.20;;;9.40;99.90;;;;;;5024559;28;20053;-58
2021/12/17 15:40:41;;;;;;;19.58;10.73;;;9.40;99.90;;;;;;5037687;28;20103;-61
2021/12/17 15:43:07;;;;;;;21.08;10.63;;;9.40;99.90;;;;;;5041761;28;20048;-58
2021/12/17 15:45:34;;;;;;;;;;;9.40;99.90;;;;;;5064032;28;20052;-59
2021/12/17 15:48:00;;;;;;;18.58;11.07;;;9.30;99.90;;;;;;5060930;28;19967;-60
2021/12/17 15:50:26;;;;;;;19.15;11.40;;;9.30;99.90;;;;;;5044129;28;20029;-59
2021/12/17 15:52:52;;;;;;;19.45;11.38;;;9.30;99.90;;;;;;5044958;28;20041;-59
2021/12/17 15:55:20;;;;;;;30.02;12.48;;;9.30;99.90;;;;;;5063720;28;20060;-59
2021/12/17 15:57:47;;;;;;;26.58;12.93;;;9.30;99.90;;;;;;5045626;28;20186;-58
2021/12/17 16:00:15;;;;;;;37.78;13.50;;;9.30;99.90;;;;;;5064128;28;20044;-59
2021/12/17 16:02:42;;;;;;;23.70;13.48;;;9.30;99.90;;;;;;5043200;28;20075;-59
2021/12/17 16:05:14;;;;;;;31.67;13.52;;;9.20;99.90;;;;;;5045425;28;20057;-59
2021/12/17 16:07:41;;;;;;;28.50;13.05;;;9.20;99.90;;;;;;5063866;28;20056;-59
2021/12/17 16:18:28;;;;;;;26.60;10.25;;;9.10;99.90;;;;;;5063152;28;20037;-60